createdAt,value
2023-05-14T00:00:58.910Z,1014.55
2023-05-14T00:01:59.235Z,1014.56
2023-05-14T00:02:59.699Z,1014.58
2023-05-14T00:03:59.780Z,1014.53
2023-05-14T00:05:00.040Z,1014.52
2023-05-14T00:06:00.288Z,1014.52
2023-05-14T00:07:00.604Z,1014.53
2023-05-14T00:08:00.838Z,1014.50
2023-05-14T00:09:01.307Z,1014.49
2023-05-14T00:10:01.428Z,1014.48
2023-05-14T00:11:01.669Z,1014.49
2023-05-14T00:12:01.936Z,1014.45
2023-05-14T00:13:03.269Z,1014.46
2023-05-14T00:14:02.510Z,1014.44
2023-05-14T00:15:02.770Z,1014.41
2023-05-14T00:16:03.071Z,1014.42
2023-05-14T00:17:03.335Z,1014.39
2023-05-14T00:18:03.615Z,1014.40
2023-05-14T00:19:03.914Z,1014.38
2023-05-14T00:20:04.146Z,1014.38
2023-05-14T00:21:04.573Z,1014.35
2023-05-14T00:22:04.834Z,1014.37
2023-05-14T00:23:05.084Z,1014.39
2023-05-14T00:24:05.299Z,1014.38
2023-05-14T00:25:05.667Z,1014.38
2023-05-14T00:26:05.933Z,1014.34
2023-05-14T00:27:06.197Z,1014.36
2023-05-14T00:28:06.447Z,1014.36
2023-05-14T00:29:06.725Z,1014.34
2023-05-14T00:30:07.027Z,1014.34
2023-05-14T00:31:07.264Z,1014.34
2023-05-14T00:32:07.641Z,1014.33
2023-05-14T00:33:07.947Z,1014.31
2023-05-14T00:34:08.193Z,1014.28
2023-05-14T00:35:08.465Z,1014.31
2023-05-14T00:36:08.716Z,1014.28
2023-05-14T00:37:09.105Z,1014.26
2023-05-14T00:38:09.342Z,1014.27
2023-05-14T00:39:09.711Z,1014.25
2023-05-14T00:40:09.953Z,1014.24
2023-05-14T00:41:10.305Z,1014.28
2023-05-14T00:42:10.661Z,1014.24
2023-05-14T00:43:11.269Z,1014.23
2023-05-14T00:44:11.297Z,1014.23
2023-05-14T00:45:11.675Z,1014.24
2023-05-14T00:46:11.941Z,1014.20
2023-05-14T00:47:12.326Z,1014.20
2023-05-14T00:48:12.555Z,1014.22
2023-05-14T00:49:12.822Z,1014.17
2023-05-14T00:50:13.047Z,1014.19
2023-05-14T00:51:13.432Z,1014.20
2023-05-14T00:52:13.665Z,1014.17
2023-05-14T00:53:13.905Z,1014.16
2023-05-14T00:54:14.276Z,1014.15
2023-05-14T00:55:14.514Z,1014.15
2023-05-14T00:56:14.753Z,1014.17
2023-05-14T00:57:15.145Z,1014.18
2023-05-14T00:58:15.395Z,1014.17
2023-05-14T00:59:15.740Z,1014.17
2023-05-14T01:00:15.980Z,1014.19
2023-05-14T01:01:16.344Z,1014.18
2023-05-14T01:02:16.672Z,1014.18
2023-05-14T01:03:17.100Z,1014.12
2023-05-14T01:04:17.353Z,1014.16
2023-05-14T01:05:17.698Z,1014.15
2023-05-14T01:06:18.039Z,1014.13
2023-05-14T01:07:18.423Z,1014.15
2023-05-14T01:08:18.660Z,1014.13
2023-05-14T01:09:19.015Z,1014.11
2023-05-14T01:10:19.358Z,1014.11
2023-05-14T01:11:19.730Z,1014.14
2023-05-14T01:12:19.982Z,1014.09
2023-05-14T01:13:20.332Z,1014.11
2023-05-14T01:14:20.584Z,1014.13
2023-05-14T01:15:20.959Z,1014.11
2023-05-14T01:16:21.233Z,1014.11
2023-05-14T01:17:21.468Z,1014.12
2023-05-14T01:18:21.726Z,1014.14
2023-05-14T01:19:22.086Z,1014.11
2023-05-14T01:20:22.761Z,1014.14
2023-05-14T01:21:22.759Z,1014.13
2023-05-14T01:22:23.040Z,1014.17
2023-05-14T01:23:23.302Z,1014.14
2023-05-14T01:24:23.549Z,1014.15
2023-05-14T01:25:23.937Z,1014.17
2023-05-14T01:26:24.165Z,1014.14
2023-05-14T01:27:24.557Z,1014.16
2023-05-14T01:28:24.820Z,1014.16
2023-05-14T01:29:25.080Z,1014.13
2023-05-14T01:30:25.785Z,1014.16
2023-05-14T01:31:25.640Z,1014.14
2023-05-14T01:32:25.922Z,1014.15
2023-05-14T01:33:26.190Z,1014.13
2023-05-14T01:34:26.507Z,1014.11
2023-05-14T01:35:26.883Z,1014.12
2023-05-14T01:36:27.217Z,1014.12
2023-05-14T01:37:27.603Z,1014.05
2023-05-14T01:38:27.879Z,1014.07
2023-05-14T01:39:28.097Z,1014.07
2023-05-14T01:40:28.460Z,1014.03
2023-05-14T01:41:28.813Z,1014.06
2023-05-14T01:42:29.099Z,1014.02
2023-05-14T01:43:29.501Z,1014.00
2023-05-14T01:44:29.697Z,1013.99
2023-05-14T01:45:29.934Z,1013.99
2023-05-14T01:46:30.251Z,1013.96
2023-05-14T01:47:30.590Z,1013.93
2023-05-14T01:48:30.814Z,1013.96
2023-05-14T01:49:31.191Z,1013.94
2023-05-14T01:50:31.445Z,1013.92
2023-05-14T01:51:31.803Z,1013.92
2023-05-14T01:52:32.060Z,1013.93
2023-05-14T01:53:32.325Z,1013.93
2023-05-14T01:54:32.572Z,1013.94
2023-05-14T01:55:32.947Z,1013.91
2023-05-14T01:56:33.191Z,1013.91
2023-05-14T01:57:33.578Z,1013.95
2023-05-14T01:58:33.830Z,1013.94
2023-05-14T01:59:34.085Z,1013.93
2023-05-14T02:00:34.332Z,1013.93
2023-05-14T02:01:34.748Z,1013.94
2023-05-14T02:02:35.069Z,1013.92
2023-05-14T02:03:35.293Z,1013.89
2023-05-14T02:04:35.534Z,1013.90
2023-05-14T02:05:35.998Z,1013.93
2023-05-14T02:06:36.204Z,1013.87
2023-05-14T02:07:36.474Z,1013.90
2023-05-14T02:08:36.721Z,1013.90
2023-05-14T02:09:36.975Z,1013.90
2023-05-14T02:10:37.252Z,1013.89
2023-05-14T02:11:37.484Z,1013.90
2023-05-14T02:12:37.743Z,1013.91
2023-05-14T02:13:37.987Z,1013.88
2023-05-14T02:14:38.235Z,1013.91
2023-05-14T02:15:38.557Z,1013.93
2023-05-14T02:16:38.759Z,1013.89
2023-05-14T02:17:39.085Z,1013.91
2023-05-14T02:18:39.306Z,1013.92
2023-05-14T02:19:39.652Z,1013.91
2023-05-14T02:20:39.882Z,1013.88
2023-05-14T02:21:40.128Z,1013.90
2023-05-14T02:22:40.408Z,1013.90
2023-05-14T02:23:42.167Z,1013.88
2023-05-14T02:24:40.983Z,1013.88
2023-05-14T02:25:41.272Z,1013.88
2023-05-14T02:26:41.472Z,1013.86
2023-05-14T02:27:41.849Z,1013.87
2023-05-14T02:28:42.093Z,1013.86
2023-05-14T02:29:42.332Z,1013.85
2023-05-14T02:30:42.609Z,1013.85
2023-05-14T02:31:42.884Z,1013.85
2023-05-14T02:32:43.207Z,1013.87
2023-05-14T02:33:43.495Z,1013.84
2023-05-14T02:34:43.719Z,1013.82
2023-05-14T02:35:43.968Z,1013.84
2023-05-14T02:36:44.192Z,1013.89
2023-05-14T02:37:44.571Z,1013.83
2023-05-14T02:38:44.811Z,1013.81
2023-05-14T02:39:45.152Z,1013.81
2023-05-14T02:40:45.516Z,1013.78
2023-05-14T02:41:45.816Z,1013.80
2023-05-14T02:42:46.181Z,1013.81
2023-05-14T02:43:46.418Z,1013.81
2023-05-14T02:44:46.770Z,1013.84
2023-05-14T02:45:47.129Z,1013.81
2023-05-14T02:46:47.418Z,1013.81
2023-05-14T02:47:47.701Z,1013.80
2023-05-14T02:48:47.965Z,1013.83
2023-05-14T02:49:48.208Z,1013.81
2023-05-14T02:50:48.566Z,1013.79
2023-05-14T02:51:48.787Z,1013.82
2023-05-14T02:52:49.162Z,1013.81
2023-05-14T02:53:49.396Z,1013.84
2023-05-14T02:54:49.743Z,1013.86
2023-05-14T02:55:49.967Z,1013.85
2023-05-14T02:56:50.316Z,1013.86
2023-05-14T02:57:50.563Z,1013.85
2023-05-14T02:58:50.943Z,1013.85
2023-05-14T02:59:51.160Z,1013.86
2023-05-14T03:00:51.546Z,1013.86
2023-05-14T03:01:51.795Z,1013.88
2023-05-14T03:02:52.158Z,1013.85
2023-05-14T03:03:52.351Z,1013.86
2023-05-14T03:04:52.681Z,1013.85
2023-05-14T03:05:52.895Z,1013.88
2023-05-14T03:06:53.258Z,1013.90
2023-05-14T03:07:53.643Z,1013.89
2023-05-14T03:08:53.907Z,1013.88
2023-05-14T03:09:54.241Z,1013.91
2023-05-14T03:10:54.577Z,1013.93
2023-05-14T03:11:54.920Z,1013.93
2023-05-14T03:12:55.279Z,1013.89
2023-05-14T03:13:55.520Z,1013.91
2023-05-14T03:14:55.852Z,1013.92
2023-05-14T03:15:56.202Z,1013.92
2023-05-14T03:16:56.591Z,1013.92
2023-05-14T03:17:56.851Z,1013.93
2023-05-14T03:18:57.120Z,1013.91
2023-05-14T03:19:57.388Z,1013.93
2023-05-14T03:20:57.665Z,1013.89
2023-05-14T03:21:57.862Z,1013.89
2023-05-14T03:22:58.240Z,1013.87
2023-05-14T03:23:58.499Z,1013.87
2023-05-14T03:24:58.731Z,1013.87
2023-05-14T03:25:58.969Z,1013.80
2023-05-14T03:26:59.308Z,1013.85
2023-05-14T03:27:59.672Z,1013.89
2023-05-14T03:28:59.918Z,1013.84
2023-05-14T03:30:00.217Z,1013.87
2023-05-14T03:31:00.544Z,1013.88
2023-05-14T03:32:00.757Z,1013.86
2023-05-14T03:33:01.150Z,1013.86
2023-05-14T03:34:01.371Z,1013.87
2023-05-14T03:35:01.722Z,1013.86
2023-05-14T03:36:01.963Z,1013.85
2023-05-14T03:37:02.246Z,1013.82
2023-05-14T03:38:02.471Z,1013.82
2023-05-14T03:39:02.712Z,1013.81
2023-05-14T03:40:02.942Z,1013.81
2023-05-14T03:41:03.293Z,1013.77
2023-05-14T03:42:03.522Z,1013.77
2023-05-14T03:43:03.888Z,1013.78
2023-05-14T03:44:04.126Z,1013.79
2023-05-14T03:45:04.473Z,1013.79
2023-05-14T03:46:04.726Z,1013.78
2023-05-14T03:47:05.074Z,1013.76
2023-05-14T03:48:05.380Z,1013.75
2023-05-14T03:49:05.677Z,1013.76
2023-05-14T03:50:05.935Z,1013.76
2023-05-14T03:51:06.176Z,1013.78
2023-05-14T03:52:06.405Z,1013.78
2023-05-14T03:53:06.782Z,1013.77
2023-05-14T03:54:07.031Z,1013.77
2023-05-14T03:55:07.354Z,1013.76
2023-05-14T03:56:07.714Z,1013.75
2023-05-14T03:57:08.063Z,1013.74
2023-05-14T03:58:08.310Z,1013.70
2023-05-14T03:59:08.573Z,1013.69
2023-05-14T04:00:08.827Z,1013.68
2023-05-14T04:01:09.081Z,1013.66
2023-05-14T04:02:09.454Z,1013.65
2023-05-14T04:03:09.732Z,1013.65
2023-05-14T04:04:09.989Z,1013.64
2023-05-14T04:05:10.181Z,1013.64
2023-05-14T04:06:10.552Z,1013.61
2023-05-14T04:07:10.883Z,1013.60
2023-05-14T04:08:11.254Z,1013.64
2023-05-14T04:09:11.514Z,1013.68
2023-05-14T04:10:11.741Z,1013.71
2023-05-14T04:11:12.101Z,1013.70
2023-05-14T04:12:12.345Z,1013.74
2023-05-14T04:13:12.705Z,1013.67
2023-05-14T04:14:12.957Z,1013.73
2023-05-14T04:15:13.295Z,1013.70
2023-05-14T04:16:13.538Z,1013.68
2023-05-14T04:17:13.920Z,1013.70
2023-05-14T04:18:14.218Z,1013.68
2023-05-14T04:19:14.543Z,1013.66
2023-05-14T04:20:14.777Z,1013.69
2023-05-14T04:21:15.173Z,1013.69
2023-05-14T04:22:15.426Z,1013.67
2023-05-14T04:23:15.690Z,1013.69
2023-05-14T04:24:15.936Z,1013.68
2023-05-14T04:25:16.289Z,1013.71
2023-05-14T04:26:16.639Z,1013.64
2023-05-14T04:27:16.902Z,1013.67
2023-05-14T04:28:17.146Z,1013.66
2023-05-14T04:29:17.520Z,1013.68
2023-05-14T04:30:17.783Z,1013.70
2023-05-14T04:31:18.051Z,1013.69
2023-05-14T04:32:18.265Z,1013.69
2023-05-14T04:33:18.524Z,1013.69
2023-05-14T04:34:18.773Z,1013.67
2023-05-14T04:35:19.123Z,1013.66
2023-05-14T04:36:19.355Z,1013.65
2023-05-14T04:37:19.731Z,1013.66
2023-05-14T04:38:19.974Z,1013.60
2023-05-14T04:39:20.222Z,1013.57
2023-05-14T04:40:20.586Z,1013.57
2023-05-14T04:41:20.861Z,1013.53
2023-05-14T04:42:21.093Z,1013.53
2023-05-14T04:43:21.473Z,1013.51
2023-05-14T04:44:21.711Z,1013.51
2023-05-14T04:45:22.079Z,1013.53
2023-05-14T04:46:22.453Z,1013.53
2023-05-14T04:47:22.728Z,1013.52
2023-05-14T04:48:23.018Z,1013.51
2023-05-14T04:49:23.270Z,1013.51
2023-05-14T04:50:23.725Z,1013.52
2023-05-14T04:51:23.853Z,1013.52
2023-05-14T04:52:24.094Z,1013.48
2023-05-14T04:53:24.479Z,1013.52
2023-05-14T04:54:24.730Z,1013.55
2023-05-14T04:55:25.059Z,1013.56
2023-05-14T04:56:25.403Z,1013.56
2023-05-14T04:57:25.763Z,1013.55
2023-05-14T04:58:26.139Z,1013.56
2023-05-14T04:59:26.384Z,1013.58
2023-05-14T05:00:26.793Z,1013.55
2023-05-14T05:01:27.121Z,1013.61
2023-05-14T05:02:27.274Z,1013.57
2023-05-14T05:03:27.674Z,1013.59
2023-05-14T05:04:27.886Z,1013.55
2023-05-14T05:05:28.128Z,1013.54
2023-05-14T05:06:28.470Z,1013.53
2023-05-14T05:07:28.830Z,1013.55
2023-05-14T05:08:29.094Z,1013.53
2023-05-14T05:09:29.332Z,1013.50
2023-05-14T05:10:29.699Z,1013.48
2023-05-14T05:11:29.964Z,1013.48
2023-05-14T05:12:30.237Z,1013.50
2023-05-14T05:13:30.572Z,1013.46
2023-05-14T05:14:30.810Z,1013.47
2023-05-14T05:15:31.165Z,1013.46
2023-05-14T05:16:31.442Z,1013.47
2023-05-14T05:17:31.697Z,1013.46
2023-05-14T05:18:31.952Z,1013.46
2023-05-14T05:19:42.542Z,1013.43
2023-05-14T05:20:33.506Z,1013.43
2023-05-14T05:21:32.861Z,1013.43
2023-05-14T05:22:33.104Z,1013.44
2023-05-14T05:23:33.361Z,1013.41
2023-05-14T05:24:33.587Z,1013.41
2023-05-14T05:25:33.961Z,1013.40
2023-05-14T05:26:34.175Z,1013.41
2023-05-14T05:27:34.521Z,1013.43
2023-05-14T05:28:34.899Z,1013.45
2023-05-14T05:29:35.177Z,1013.46
2023-05-14T05:30:35.417Z,1013.41
2023-05-14T05:31:35.697Z,1013.42
2023-05-14T05:32:35.893Z,1013.43
2023-05-14T05:33:36.269Z,1013.42
2023-05-14T05:34:36.518Z,1013.38
2023-05-14T05:35:36.862Z,1013.44
2023-05-14T05:36:37.200Z,1013.44
2023-05-14T05:37:37.546Z,1013.41
2023-05-14T05:38:37.802Z,1013.40
2023-05-14T05:39:38.035Z,1013.41
2023-05-14T05:40:38.271Z,1013.46
2023-05-14T05:41:38.617Z,1013.44
2023-05-14T05:42:38.871Z,1013.43
2023-05-14T05:43:39.130Z,1013.38
2023-05-14T05:44:39.354Z,1013.41
2023-05-14T05:45:40.628Z,1013.42
2023-05-14T05:46:40.029Z,1013.38
2023-05-14T05:47:40.256Z,1013.35
2023-05-14T05:48:40.469Z,1013.37
2023-05-14T05:49:47.735Z,1013.35
2023-05-14T05:50:45.821Z,1013.38
2023-05-14T05:51:41.258Z,1013.36
2023-05-14T05:52:44.156Z,1013.34
2023-05-14T05:53:41.832Z,1013.37
2023-05-14T05:54:42.051Z,1013.31
2023-05-14T05:55:42.291Z,1013.31
2023-05-14T05:56:42.540Z,1013.36
2023-05-14T05:57:42.786Z,1013.33
2023-05-14T05:58:43.026Z,1013.30
2023-05-14T05:59:43.253Z,1013.31
2023-05-14T06:00:43.448Z,1013.34
2023-05-14T06:01:43.859Z,1013.36
2023-05-14T06:02:44.444Z,1013.27
2023-05-14T06:03:46.399Z,1013.26
2023-05-14T06:04:44.600Z,1013.24
2023-05-14T06:05:45.062Z,1013.23
2023-05-14T06:06:45.152Z,1013.23
2023-05-14T06:07:45.494Z,1013.30
2023-05-14T06:08:45.724Z,1013.26
2023-05-14T06:09:45.932Z,1013.25
2023-05-14T06:10:47.521Z,1013.27
2023-05-14T06:11:46.502Z,1013.32
2023-05-14T06:12:46.701Z,1013.37
2023-05-14T06:13:47.044Z,1013.35
2023-05-14T06:14:47.260Z,1013.32
2023-05-14T06:15:47.576Z,1013.32
2023-05-14T06:16:47.877Z,1013.30
2023-05-14T06:17:48.053Z,1013.32
2023-05-14T06:18:48.280Z,1013.35
2023-05-14T06:19:48.519Z,1013.32
2023-05-14T06:20:48.719Z,1013.28
2023-05-14T06:21:49.038Z,1013.31
2023-05-14T06:22:49.249Z,1013.25
2023-05-14T06:23:49.570Z,1013.27
2023-05-14T06:24:49.819Z,1013.24
2023-05-14T06:25:50.777Z,1013.24
2023-05-14T06:26:50.265Z,1013.23
2023-05-14T06:27:50.567Z,1013.22
2023-05-14T06:28:50.896Z,1013.25
2023-05-14T06:29:51.120Z,1013.29
2023-05-14T06:30:51.360Z,1013.28
2023-05-14T06:31:51.645Z,1013.24
2023-05-14T06:32:51.936Z,1013.27
2023-05-14T06:33:52.234Z,1013.27
2023-05-14T06:34:52.370Z,1013.24
2023-05-14T06:35:52.709Z,1013.19
2023-05-14T06:36:52.882Z,1013.21
2023-05-14T06:37:53.253Z,1013.28
2023-05-14T06:38:53.458Z,1013.29
2023-05-14T06:39:54.701Z,1013.26
2023-05-14T06:40:53.943Z,1013.25
2023-05-14T06:41:54.249Z,1013.26
2023-05-14T06:42:54.448Z,1013.31
2023-05-14T06:43:54.776Z,1013.31
2023-05-14T06:44:54.974Z,1013.30
2023-05-14T06:45:55.203Z,1013.24
2023-05-14T06:46:55.412Z,1013.24
2023-05-14T06:47:55.709Z,1013.27
2023-05-14T06:48:58.040Z,1013.24
2023-05-14T06:49:56.082Z,1013.29
2023-05-14T06:50:56.282Z,1013.29
2023-05-14T06:51:56.616Z,1013.31
2023-05-14T06:52:56.801Z,1013.28
2023-05-14T06:53:57.139Z,1013.31
2023-05-14T06:54:57.356Z,1013.32
2023-05-14T06:55:57.550Z,1013.34
2023-05-14T06:56:57.894Z,1013.32
2023-05-14T06:57:58.078Z,1013.30
2023-05-14T06:58:58.416Z,1013.31
2023-05-14T06:59:58.629Z,1013.29
2023-05-14T07:00:59.010Z,1013.29
2023-05-14T07:01:59.253Z,1013.31
2023-05-14T07:02:59.594Z,1013.28
2023-05-14T07:03:59.805Z,1013.25
2023-05-14T07:05:00.036Z,1013.28
2023-05-14T07:06:00.244Z,1013.22
2023-05-14T07:07:00.556Z,1013.22
2023-05-14T07:08:00.787Z,1013.20
2023-05-14T07:09:01.021Z,1013.22
2023-05-14T07:10:01.248Z,1013.23
2023-05-14T07:11:01.470Z,1013.19
2023-05-14T07:12:01.669Z,1013.19
2023-05-14T07:13:01.894Z,1013.20
2023-05-14T07:14:02.128Z,1013.20
2023-05-14T07:15:02.355Z,1013.19
2023-05-14T07:16:03.267Z,1013.20
2023-05-14T07:17:02.867Z,1013.15
2023-05-14T07:18:03.052Z,1013.15
2023-05-14T07:19:03.325Z,1013.21
2023-05-14T07:20:03.515Z,1013.18
2023-05-14T07:21:03.717Z,1013.18
2023-05-14T07:22:03.955Z,1013.20
2023-05-14T07:23:04.226Z,1013.16
2023-05-14T07:24:04.433Z,1013.15
2023-05-14T07:25:04.797Z,1013.13
2023-05-14T07:26:04.881Z,1013.15
2023-05-14T07:27:06.061Z,1013.12
2023-05-14T07:28:05.508Z,1013.10
2023-05-14T07:29:05.707Z,1013.11
2023-05-14T07:30:05.954Z,1013.12
2023-05-14T07:31:06.235Z,1013.16
2023-05-14T07:32:06.389Z,1013.07
2023-05-14T07:33:06.597Z,1013.09
2023-05-14T07:34:06.788Z,1013.06
2023-05-14T07:35:06.984Z,1013.07
2023-05-14T07:36:07.159Z,1013.07
2023-05-14T07:37:07.384Z,1013.08
2023-05-14T07:38:07.566Z,1013.08
2023-05-14T07:39:07.781Z,1013.06
2023-05-14T07:40:07.964Z,1013.02
2023-05-14T07:41:08.264Z,1013.06
2023-05-14T07:42:08.461Z,1013.03
2023-05-14T07:43:08.852Z,1013.04
2023-05-14T07:44:08.943Z,1013.01
2023-05-14T07:45:09.134Z,1012.99
2023-05-14T07:46:09.325Z,1012.92
2023-05-14T07:47:09.570Z,1013.00
2023-05-14T07:48:09.906Z,1013.00
2023-05-14T07:49:10.009Z,1012.92
2023-05-14T07:50:10.183Z,1012.92
2023-05-14T07:51:10.472Z,1012.94
2023-05-14T07:52:10.622Z,1012.89
2023-05-14T07:53:10.998Z,1012.88
2023-05-14T07:54:11.196Z,1012.91
2023-05-14T07:55:11.369Z,1012.88
2023-05-14T07:56:11.521Z,1012.89
2023-05-14T07:57:11.820Z,1012.91
2023-05-14T07:58:12.008Z,1012.91
2023-05-14T07:59:12.170Z,1012.89
2023-05-14T08:00:12.353Z,1012.85
2023-05-14T08:01:12.584Z,1012.84
2023-05-14T08:02:12.795Z,1012.86
2023-05-14T08:03:13.034Z,1012.86
2023-05-14T08:04:13.306Z,1012.92
2023-05-14T08:05:13.457Z,1012.82
2023-05-14T08:06:13.588Z,1012.84
2023-05-14T08:07:13.775Z,1012.79
2023-05-14T08:08:13.962Z,1012.87
2023-05-14T08:09:14.149Z,1012.86
2023-05-14T08:10:14.296Z,1012.81
2023-05-14T08:11:14.510Z,1012.86
2023-05-14T08:12:14.654Z,1012.78
2023-05-14T08:13:14.832Z,1012.78
2023-05-14T08:14:15.007Z,1012.76
2023-05-14T08:15:15.162Z,1012.72
2023-05-14T08:16:15.326Z,1012.76
2023-05-14T08:17:15.538Z,1012.84
2023-05-14T08:18:15.789Z,1012.71
2023-05-14T08:19:16.247Z,1012.75
2023-05-14T08:20:16.021Z,1012.73
2023-05-14T08:21:16.173Z,1012.70
2023-05-14T08:22:16.316Z,1012.69
2023-05-14T08:23:16.465Z,1012.71
2023-05-14T08:24:16.660Z,1012.69
2023-05-14T08:25:16.808Z,1012.74
2023-05-14T08:26:16.957Z,1012.69
2023-05-14T08:27:17.096Z,1012.70
2023-05-14T08:28:17.246Z,1012.69
2023-05-14T08:29:17.476Z,1012.65
2023-05-14T08:30:17.613Z,1012.75
2023-05-14T08:31:17.790Z,1012.74
2023-05-14T08:32:23.341Z,1012.68
2023-05-14T08:33:19.069Z,1012.64
2023-05-14T08:34:18.202Z,1012.63
2023-05-14T08:35:18.367Z,1012.65
2023-05-14T08:36:18.509Z,1012.65
2023-05-14T08:37:18.660Z,1012.62
2023-05-14T08:38:18.833Z,1012.70
2023-05-14T08:39:19.019Z,1012.63
2023-05-14T08:40:19.157Z,1012.51
2023-05-14T08:41:19.337Z,1012.55
2023-05-14T08:42:19.457Z,1012.54
2023-05-14T08:43:19.657Z,1012.56
2023-05-14T08:44:19.759Z,1012.51
2023-05-14T08:45:19.920Z,1012.57
2023-05-14T08:46:20.019Z,1012.49
2023-05-14T08:47:20.221Z,1012.50
2023-05-14T08:48:20.497Z,1012.46
2023-05-14T08:49:20.562Z,1012.47
2023-05-14T08:50:23.024Z,1012.45
2023-05-14T08:51:20.857Z,1012.43
2023-05-14T08:52:21.019Z,1012.45
2023-05-14T08:53:21.418Z,1012.46
2023-05-14T08:54:21.355Z,1012.44
2023-05-14T08:55:21.512Z,1012.53
2023-05-14T08:56:21.774Z,1012.47
2023-05-14T08:57:21.853Z,1012.44
2023-05-14T08:58:22.007Z,1012.39
2023-05-14T08:59:22.155Z,1012.40
2023-05-14T09:00:22.557Z,1012.32
2023-05-14T09:01:22.692Z,1012.26
2023-05-14T09:02:22.683Z,1012.36
2023-05-14T09:03:22.832Z,1012.30
2023-05-14T09:04:23.202Z,1012.37
2023-05-14T09:05:23.163Z,1012.34
2023-05-14T09:06:23.306Z,1012.33
2023-05-14T09:07:23.440Z,1012.33
2023-05-14T09:08:23.578Z,1012.37
2023-05-14T09:09:23.750Z,1012.35
2023-05-14T09:10:24.173Z,1012.29
2023-05-14T09:11:24.053Z,1012.30
2023-05-14T09:12:24.191Z,1012.30
2023-05-14T09:13:25.757Z,1012.33
2023-05-14T09:14:25.007Z,1012.37
2023-05-14T09:15:24.592Z,1012.38
2023-05-14T09:16:24.847Z,1012.24
2023-05-14T09:17:24.908Z,1012.33
2023-05-14T09:18:25.120Z,1012.20
2023-05-14T09:19:25.407Z,1012.33
2023-05-14T09:20:25.880Z,1012.30
2023-05-14T09:21:25.523Z,1012.29
2023-05-14T09:22:25.618Z,1012.29
2023-05-14T09:23:25.738Z,1012.27
2023-05-14T09:24:25.919Z,1012.23
2023-05-14T09:25:25.995Z,1012.17
2023-05-14T09:26:26.133Z,1012.14
2023-05-14T09:27:26.222Z,1012.07
2023-05-14T09:28:26.324Z,1012.05
2023-05-14T09:29:26.472Z,1012.14
2023-05-14T09:30:26.727Z,1012.15
2023-05-14T09:31:26.803Z,1012.13
2023-05-14T09:32:26.873Z,1012.10
2023-05-14T09:33:26.946Z,1012.07
2023-05-14T09:34:27.120Z,1011.94
2023-05-14T09:35:28.740Z,1012.01
2023-05-14T09:36:27.260Z,1011.99
2023-05-14T09:37:27.324Z,1012.00
2023-05-14T09:38:27.379Z,1011.96
2023-05-14T09:39:27.505Z,1011.93
2023-05-14T09:40:27.888Z,1011.89
2023-05-14T09:41:27.723Z,1011.84
2023-05-14T09:42:27.811Z,1011.86
2023-05-14T09:43:27.868Z,1011.86
2023-05-14T09:44:27.966Z,1011.66
2023-05-14T09:45:28.035Z,1011.62
2023-05-14T09:46:28.141Z,1011.63
2023-05-14T09:47:28.286Z,1011.54
2023-05-14T09:48:28.293Z,1011.56
2023-05-14T09:49:28.399Z,1011.52
2023-05-14T09:50:28.497Z,1011.51
2023-05-14T09:51:28.590Z,1011.46
2023-05-14T09:52:28.652Z,1011.48
2023-05-14T09:53:28.744Z,1011.54
2023-05-14T09:54:28.837Z,1011.51
2023-05-14T09:55:28.937Z,1011.63
2023-05-14T09:56:29.016Z,1011.72
2023-05-14T09:57:29.145Z,1011.70
2023-05-14T09:58:29.194Z,1011.65
2023-05-14T09:59:29.306Z,1011.58
2023-05-14T10:00:29.396Z,1011.53
2023-05-14T10:01:29.585Z,1011.20
2023-05-14T10:02:29.641Z,1011.17
2023-05-14T10:03:29.726Z,1011.18
2023-05-14T10:04:29.884Z,1011.18
2023-05-14T10:05:30.005Z,1011.20
2023-05-14T10:06:30.042Z,1011.17
2023-05-14T10:07:30.263Z,1011.25
2023-05-14T10:08:30.300Z,1011.12
2023-05-14T10:09:30.397Z,1011.18
2023-05-14T10:10:30.505Z,1011.13
2023-05-14T10:11:30.692Z,1011.15
2023-05-14T10:12:30.789Z,1011.23
2023-05-14T10:13:31.033Z,1011.19
2023-05-14T10:14:31.182Z,1011.13
2023-05-14T10:15:31.301Z,1011.13
2023-05-14T10:16:31.464Z,1011.19
2023-05-14T10:17:31.568Z,1011.12
2023-05-14T10:18:31.749Z,1011.39
2023-05-14T10:19:31.896Z,1011.10
2023-05-14T10:20:32.024Z,1011.21
2023-05-14T10:21:32.152Z,1011.10
2023-05-14T10:22:32.285Z,1011.08
2023-05-14T10:23:32.433Z,1011.09
2023-05-14T10:24:32.655Z,1011.05
2023-05-14T10:25:32.757Z,1011.04
2023-05-14T10:26:32.890Z,1011.06
2023-05-14T10:27:34.080Z,1011.00
2023-05-14T10:28:33.307Z,1011.04
2023-05-14T10:29:33.583Z,1011.08
2023-05-14T10:30:33.631Z,1011.01
2023-05-14T10:31:33.835Z,1011.05
2023-05-14T10:32:34.061Z,1011.02
2023-05-14T10:33:34.189Z,1011.01
2023-05-14T10:34:34.366Z,1010.99
2023-05-14T10:35:34.557Z,1010.99
2023-05-14T10:36:34.715Z,1010.97
2023-05-14T10:37:35.001Z,1011.04
2023-05-14T10:38:35.176Z,1010.99
2023-05-14T10:39:35.464Z,1011.01
2023-05-14T10:40:35.655Z,1010.99
2023-05-14T10:41:35.823Z,1011.00
2023-05-14T10:42:36.079Z,1011.00
2023-05-14T10:43:36.265Z,1011.01
2023-05-14T10:44:36.455Z,1011.02
2023-05-14T10:45:36.652Z,1011.01
2023-05-14T10:46:36.920Z,1010.99
2023-05-14T10:47:37.119Z,1010.97
2023-05-14T10:48:37.336Z,1010.95
2023-05-14T10:49:43.611Z,1010.90
2023-05-14T10:50:38.680Z,1010.92
2023-05-14T10:51:38.012Z,1010.94
2023-05-14T10:52:38.074Z,1010.96
2023-05-14T10:53:38.255Z,1010.94
2023-05-14T10:54:38.584Z,1010.95
2023-05-14T10:55:38.761Z,1010.97
2023-05-14T10:56:38.948Z,1010.93
2023-05-14T10:57:39.160Z,1010.91
2023-05-14T10:58:39.323Z,1010.87
2023-05-14T10:59:39.644Z,1010.94
2023-05-14T11:00:39.823Z,1010.88
2023-05-14T11:01:40.170Z,1010.94
2023-05-14T11:02:40.417Z,1010.88
2023-05-14T11:03:40.701Z,1010.92
2023-05-14T11:04:40.878Z,1010.91
2023-05-14T11:05:41.079Z,1010.88
2023-05-14T11:06:41.248Z,1010.87
2023-05-14T11:07:41.554Z,1010.88
2023-05-14T11:08:41.755Z,1010.91
2023-05-14T11:09:41.971Z,1010.87
2023-05-14T11:10:42.177Z,1010.89
2023-05-14T11:11:42.332Z,1010.86
2023-05-14T11:12:42.634Z,1010.87
2023-05-14T11:13:42.850Z,1010.77
2023-05-14T11:14:43.062Z,1010.80
2023-05-14T11:15:43.240Z,1010.87
2023-05-14T11:16:43.587Z,1010.82
2023-05-14T11:17:43.874Z,1010.80
2023-05-14T11:18:44.066Z,1010.83
2023-05-14T11:19:44.368Z,1010.80
2023-05-14T11:20:44.561Z,1010.77
2023-05-14T11:21:44.796Z,1010.78
2023-05-14T11:22:45.000Z,1010.81
2023-05-14T11:23:45.190Z,1010.77
2023-05-14T11:24:45.522Z,1010.77
2023-05-14T11:25:45.721Z,1010.76
2023-05-14T11:26:46.065Z,1010.76
2023-05-14T11:27:46.272Z,1010.79
2023-05-14T11:28:46.458Z,1010.79
2023-05-14T11:29:46.689Z,1010.82
2023-05-14T11:30:46.980Z,1010.76
2023-05-14T11:31:47.276Z,1010.76
2023-05-14T11:32:47.605Z,1010.74
2023-05-14T11:33:47.728Z,1010.74
2023-05-14T11:34:48.022Z,1010.75
2023-05-14T11:35:48.172Z,1010.69
2023-05-14T11:36:48.375Z,1010.69
2023-05-14T11:37:48.644Z,1010.68
2023-05-14T11:38:49.758Z,1010.68
2023-05-14T11:39:49.202Z,1010.70
2023-05-14T11:40:49.363Z,1010.64
2023-05-14T11:41:49.554Z,1010.62
2023-05-14T11:42:49.844Z,1010.55
2023-05-14T11:43:50.149Z,1010.57
2023-05-14T11:44:50.458Z,1010.58
2023-05-14T11:45:50.668Z,1010.58
2023-05-14T11:46:50.872Z,1010.54
2023-05-14T11:47:51.057Z,1010.53
2023-05-14T11:48:51.229Z,1010.56
2023-05-14T11:49:58.460Z,1010.53
2023-05-14T11:50:52.378Z,1010.49
2023-05-14T11:51:51.875Z,1010.48
2023-05-14T11:52:52.053Z,1010.44
2023-05-14T11:53:52.362Z,1010.44
2023-05-14T11:54:52.640Z,1010.49
2023-05-14T11:55:52.809Z,1010.50
2023-05-14T11:56:53.025Z,1010.47
2023-05-14T11:57:53.204Z,1010.46
2023-05-14T11:58:53.490Z,1010.41
2023-05-14T11:59:53.660Z,1010.39
2023-05-14T12:00:53.981Z,1010.35
2023-05-14T12:01:54.170Z,1010.37
2023-05-14T12:02:54.470Z,1010.36
2023-05-14T12:03:54.639Z,1010.34
2023-05-14T12:04:54.859Z,1010.30
2023-05-14T12:05:55.053Z,1010.27
2023-05-14T12:06:55.328Z,1010.27
2023-05-14T12:07:55.513Z,1010.30
2023-05-14T12:08:55.696Z,1010.27